This is the latest recevied weather packets stored in our database for station/object WI5ARD. If no packets are shown the sender has not sent any weather packets the latest 10 day(s).
| Time | Temp. | Humidity | Pressure | Rain* | Wind** | Luminosity | Snow |
|---|---|---|---|---|---|---|---|
| 1778040045 | 21.67° C | 92% | 1014.1 hPa | 0 mm | - | 0 W/m² | - |
| 1778039136 | 21.67° C | 92% | 1014.1 hPa | 0 mm | - | 0 W/m² | - |
| 1778037353 | 21.67° C | 90% | 1014 hPa | 0 mm | - | 0 W/m² | - |
| 1778036720 | 21.67° C | 90% | 1014 hPa | 0 mm | - | 0 W/m² | - |
| 1778035819 | 22.22° C | 89% | 1013.9 hPa | 0 mm | - | 0 W/m² | - |
| 1778035541 | 22.22° C | 89% | 1013.8 hPa | 0 mm | - | 0 W/m² | - |
| 1778035219 | 22.22° C | 88% | 1013.9 hPa | 0 mm | - | 0 W/m² | - |
| 1778034920 | 22.22° C | 88% | 1013.8 hPa | 0 mm | - | 0 W/m² | - |
| 1778033737 | 22.78° C | 87% | 1013.8 hPa | 0 mm | - | 0 W/m² | - |
| 1778033419 | 22.78° C | 87% | 1013.7 hPa | 0 mm | - | 0 W/m² | - |
| 1778029819 | 23.33° C | 84% | 1013.2 hPa | 0 mm | - | 0 W/m² | - |
| 1778029519 | 23.89° C | 83% | 1013.2 hPa | 0 mm | - | 0 W/m² | - |
| 1778028364 | 23.89° C | 82% | 1013.1 hPa | 0 mm | - | 0 W/m² | - |
| 1778028020 | 23.89° C | 82% | 1013.1 hPa | 0 mm | - | 0 W/m² | - |
| 1778027437 | 24.44° C | 81% | 1013 hPa | 0 mm | - | 7 W/m² | - |
| 1778026818 | 24.44° C | 80% | 1013.1 hPa | 0 mm | - | 18 W/m² | - |
| 1778025319 | 25° C | 77% | 1013.1 hPa | 0 mm | - | 35 W/m² | - |
| 1778024121 | 25° C | 76% | 1013.1 hPa | 0 mm | - | 32 W/m² | - |
| 1778016023 | 26.67° C | 66% | 1013.3 hPa | 0 mm | - | 206 W/m² | - |
| 1778012720 | 27.22° C | 62% | 1013.5 hPa | 0 mm | - | 417 W/m² | - |
| 1778010622 | 27.22° C | 65% | 1013.8 hPa | 0 mm | - | 926 W/m² | - |
| 1778010337 | 27.22° C | 65% | 1013.7 hPa | 0 mm | - | 914 W/m² | - |
| 1778005843 | 27.22° C | 65% | 1014.6 hPa | 0 mm | - | 798 W/m² | - |
| 1778005219 | 26.67° C | 66% | 1014.6 hPa | 0 mm | - | 1023 W/m² | - |
| 1778004623 | 26.67° C | 66% | 1014.7 hPa | 0 mm | - | 1028 W/m² | - |
* Rain latest hour (hover to see other rain measurements)
** Current wind speed in m/s (hover to see current wind gust speed)